createdAt,value
2018-03-28T00:01:47.976Z,5.78
2018-03-28T00:04:15.374Z,5.78
2018-03-28T00:06:42.762Z,5.77
2018-03-28T00:09:10.143Z,5.68
2018-03-28T00:11:37.624Z,5.66
2018-03-28T00:14:05.002Z,5.56
2018-03-28T00:16:32.399Z,5.44
2018-03-28T00:18:59.793Z,5.50
2018-03-28T00:21:27.178Z,5.47
2018-03-28T00:23:54.580Z,5.49
2018-03-28T00:26:21.979Z,5.48
2018-03-28T00:28:49.421Z,5.37
2018-03-28T00:31:16.859Z,5.39
2018-03-28T00:33:44.320Z,5.47
2018-03-28T00:36:11.727Z,5.41
2018-03-28T00:38:39.186Z,5.42
2018-03-28T00:41:06.644Z,5.39
2018-03-28T00:43:34.022Z,5.47
2018-03-28T00:46:01.413Z,5.45
2018-03-28T00:48:28.906Z,5.48
2018-03-28T00:50:56.284Z,5.45
2018-03-28T00:53:23.683Z,5.58
2018-03-28T00:55:51.075Z,5.56
2018-03-28T00:58:18.509Z,5.62
2018-03-28T01:00:45.909Z,5.50
2018-03-28T01:03:13.411Z,5.47
2018-03-28T01:05:40.794Z,5.50
2018-03-28T01:08:08.214Z,5.38
2018-03-28T01:10:35.602Z,5.50
2018-03-28T01:13:03.003Z,5.51
2018-03-28T01:15:30.386Z,5.56
2018-03-28T01:17:57.804Z,5.48
2018-03-28T01:20:25.194Z,5.45
2018-03-28T01:22:52.600Z,5.45
2018-03-28T01:25:19.989Z,5.59
2018-03-28T01:27:47.459Z,5.63
2018-03-28T01:30:14.850Z,5.52
2018-03-28T01:32:42.255Z,5.41
2018-03-28T01:35:09.624Z,5.42
2018-03-28T01:37:37.023Z,5.39
2018-03-28T01:40:04.406Z,5.54
2018-03-28T01:42:31.848Z,5.63
2018-03-28T01:44:59.235Z,5.56
2018-03-28T01:47:26.627Z,5.58
2018-03-28T01:49:54.015Z,5.66
2018-03-28T01:52:21.415Z,5.59
2018-03-28T01:54:48.800Z,5.74
2018-03-28T01:57:16.292Z,5.63
2018-03-28T01:59:43.735Z,5.53
2018-03-28T02:02:11.135Z,5.50
2018-03-28T02:04:38.608Z,5.67
2018-03-28T02:07:05.994Z,5.50
2018-03-28T02:09:33.402Z,5.43
2018-03-28T02:12:00.789Z,5.44
2018-03-28T02:14:28.183Z,5.38
2018-03-28T02:16:55.583Z,5.32
2018-03-28T02:19:22.966Z,5.38
2018-03-28T02:21:50.386Z,5.43
2018-03-28T02:24:17.850Z,5.41
2018-03-28T02:26:45.230Z,5.36
2018-03-28T02:29:12.657Z,5.47
2018-03-28T02:31:40.047Z,5.38
2018-03-28T02:34:07.439Z,5.24
2018-03-28T02:36:34.826Z,5.24
2018-03-28T02:39:02.241Z,5.37
2018-03-28T02:41:29.646Z,5.46
2018-03-28T02:43:57.033Z,5.50
2018-03-28T02:46:24.448Z,5.26
2018-03-28T02:48:51.831Z,5.29
2018-03-28T02:51:19.219Z,5.33
2018-03-28T02:53:46.616Z,5.47
2018-03-28T02:56:13.996Z,5.51
2018-03-28T02:58:41.393Z,5.34
2018-03-28T03:01:08.788Z,5.33
2018-03-28T03:03:36.179Z,5.46
2018-03-28T03:06:03.583Z,5.37
2018-03-28T03:08:30.979Z,5.24
2018-03-28T03:10:58.374Z,5.32
2018-03-28T03:13:25.850Z,5.20
2018-03-28T03:15:53.236Z,5.07
2018-03-28T03:18:20.626Z,5.09
2018-03-28T03:20:48.015Z,5.04
2018-03-28T03:23:15.406Z,5.11
2018-03-28T03:25:42.810Z,5.23
2018-03-28T03:28:10.279Z,5.33
2018-03-28T03:30:37.672Z,5.31
2018-03-28T03:33:05.059Z,5.10
2018-03-28T03:35:32.451Z,5.03
2018-03-28T03:37:59.904Z,5.17
2018-03-28T03:40:27.230Z,5.19
2018-03-28T03:42:54.628Z,5.24
2018-03-28T03:45:22.010Z,5.25
2018-03-28T03:47:49.480Z,5.15
2018-03-28T03:50:16.870Z,5.25
2018-03-28T03:52:44.270Z,5.09
2018-03-28T03:55:11.651Z,5.05
2018-03-28T03:57:39.047Z,4.98
2018-03-28T04:00:06.434Z,4.95
2018-03-28T04:02:33.866Z,4.90
2018-03-28T04:05:01.251Z,4.81
2018-03-28T04:07:28.650Z,4.82
2018-03-28T04:09:56.031Z,4.79
2018-03-28T04:12:23.438Z,4.80
2018-03-28T04:14:50.827Z,4.80
2018-03-28T04:17:18.219Z,4.75
2018-03-28T04:19:45.653Z,4.75
2018-03-28T04:22:13.042Z,4.75
2018-03-28T04:24:40.471Z,4.78
2018-03-28T04:27:07.862Z,4.80
2018-03-28T04:29:35.278Z,4.65
2018-03-28T04:32:02.735Z,4.75
2018-03-28T04:34:30.127Z,4.75
2018-03-28T04:36:57.535Z,4.73
2018-03-28T04:39:24.974Z,4.74
2018-03-28T04:41:52.362Z,4.70
2018-03-28T04:44:19.755Z,4.65
2018-03-28T04:46:47.211Z,4.55
2018-03-28T04:49:14.597Z,4.54
2018-03-28T04:51:41.987Z,4.60
2018-03-28T04:54:09.478Z,4.65
2018-03-28T04:56:36.935Z,4.58
2018-03-28T04:59:04.399Z,4.75
2018-03-28T05:01:31.798Z,4.73
2018-03-28T05:03:59.190Z,4.75
2018-03-28T05:06:26.574Z,4.75
2018-03-28T05:08:53.978Z,4.71
2018-03-28T05:11:21.365Z,4.71
2018-03-28T05:13:48.761Z,4.76
2018-03-28T05:16:16.150Z,4.76
2018-03-28T05:18:43.543Z,4.64
2018-03-28T05:21:10.927Z,4.62
2018-03-28T05:23:38.322Z,4.80
2018-03-28T05:26:05.702Z,4.61
2018-03-28T05:28:33.106Z,4.45
2018-03-28T05:31:00.519Z,4.58
2018-03-28T05:33:27.907Z,4.44
2018-03-28T05:35:55.298Z,4.39
2018-03-28T05:38:22.782Z,4.44
2018-03-28T05:40:50.187Z,4.34
2018-03-28T05:43:17.607Z,4.46
2018-03-28T05:45:44.990Z,4.42
2018-03-28T05:48:12.394Z,4.55
2018-03-28T05:50:39.776Z,4.62
2018-03-28T05:53:07.162Z,4.70
2018-03-28T05:55:34.558Z,4.75
2018-03-28T05:58:01.942Z,4.98
2018-03-28T06:00:29.340Z,5.04
2018-03-28T06:05:17.829Z,5.08
2018-03-28T06:07:45.294Z,4.97
2018-03-28T06:10:12.751Z,4.74
2018-03-28T06:12:40.135Z,4.80
2018-03-28T06:15:07.532Z,4.81
2018-03-28T06:17:35.016Z,4.72
2018-03-28T06:20:02.405Z,4.78
2018-03-28T06:22:29.792Z,4.77
2018-03-28T06:24:57.266Z,4.64
2018-03-28T06:27:24.650Z,4.63
2018-03-28T06:29:52.044Z,4.63
2018-03-28T06:32:19.447Z,4.64
2018-03-28T06:34:46.839Z,4.72
2018-03-28T06:37:14.226Z,4.67
2018-03-28T06:39:41.714Z,4.63
2018-03-28T06:42:09.136Z,4.63
2018-03-28T06:44:36.631Z,4.71
2018-03-28T06:47:04.019Z,4.81
2018-03-28T06:49:31.439Z,4.94
2018-03-28T06:51:58.827Z,4.85
2018-03-28T06:54:26.227Z,4.72
2018-03-28T06:56:53.602Z,4.77
2018-03-28T06:59:20.998Z,4.78
2018-03-28T07:01:48.412Z,4.73
2018-03-28T07:04:15.806Z,4.80
2018-03-28T07:06:43.197Z,4.64
2018-03-28T07:09:10.594Z,4.68
2018-03-28T07:11:38.035Z,4.77
2018-03-28T07:14:05.490Z,4.80
2018-03-28T07:16:32.946Z,4.84
2018-03-28T07:19:00.334Z,4.71
2018-03-28T07:21:27.888Z,4.67
2018-03-28T07:23:55.453Z,4.64
2018-03-28T07:26:22.964Z,4.59
2018-03-28T07:28:50.427Z,4.70
2018-03-28T07:31:18.021Z,4.68
2018-03-28T07:33:45.560Z,4.81
2018-03-28T07:36:13.007Z,4.82
2018-03-28T07:38:40.390Z,4.88
2018-03-28T07:41:07.810Z,4.86
2018-03-28T07:43:35.195Z,4.73
2018-03-28T07:46:02.591Z,4.65
2018-03-28T07:48:29.975Z,4.64
2018-03-28T07:50:57.475Z,4.49
2018-03-28T07:53:24.826Z,4.44
2018-03-28T07:55:52.250Z,4.45
2018-03-28T07:58:19.710Z,4.53
2018-03-28T08:00:47.159Z,4.46
2018-03-28T08:03:14.548Z,4.40
2018-03-28T08:05:41.941Z,4.40
2018-03-28T08:08:09.331Z,4.52
2018-03-28T08:10:36.714Z,4.71
2018-03-28T08:13:04.099Z,4.77
2018-03-28T08:15:31.499Z,4.73
2018-03-28T08:17:58.878Z,4.56
2018-03-28T08:20:26.274Z,4.54
2018-03-28T08:22:53.761Z,4.58
2018-03-28T08:25:21.147Z,4.54
2018-03-28T08:27:48.535Z,4.54
2018-03-28T08:30:15.927Z,4.44
2018-03-28T08:32:43.378Z,4.67
2018-03-28T08:35:10.767Z,4.71
2018-03-28T08:37:38.174Z,4.70
2018-03-28T08:40:05.567Z,4.49
2018-03-28T08:42:32.962Z,4.39
2018-03-28T08:45:00.365Z,4.55
2018-03-28T08:47:27.749Z,4.49
2018-03-28T08:49:55.145Z,4.32
2018-03-28T08:52:22.619Z,4.32
2018-03-28T08:54:50.076Z,4.32
2018-03-28T08:57:17.543Z,4.44
2018-03-28T08:59:45.412Z,4.38
2018-03-28T09:02:13.038Z,4.43
2018-03-28T09:04:40.430Z,4.39
2018-03-28T09:07:07.827Z,4.38
2018-03-28T09:09:35.219Z,4.34
2018-03-28T09:12:02.634Z,4.38
2018-03-28T09:14:30.160Z,4.32
2018-03-28T09:16:57.554Z,4.19
2018-03-28T09:19:25.024Z,4.19
2018-03-28T09:21:52.415Z,4.13
2018-03-28T09:24:19.792Z,4.18
2018-03-28T09:26:47.266Z,4.25
2018-03-28T09:29:14.746Z,4.32
2018-03-28T09:31:42.374Z,4.39
2018-03-28T09:34:09.766Z,4.36
2018-03-28T09:36:37.193Z,4.15
2018-03-28T09:39:05.378Z,4.09
2018-03-28T09:41:32.841Z,4.12
2018-03-28T09:44:00.230Z,4.23
2018-03-28T09:46:27.668Z,4.21
2018-03-28T09:48:55.051Z,4.35
2018-03-28T09:51:22.452Z,4.33
2018-03-28T09:53:49.928Z,4.31
2018-03-28T09:56:17.323Z,4.21
2018-03-28T09:58:44.698Z,4.29
2018-03-28T10:01:12.094Z,4.42
2018-03-28T10:03:45.166Z,4.41
2018-03-28T10:06:12.555Z,4.31
2018-03-28T10:08:39.956Z,4.38
2018-03-28T10:11:07.346Z,4.49
2018-03-28T10:13:34.806Z,4.24
2018-03-28T10:16:02.194Z,4.11
2018-03-28T10:18:29.588Z,4.17
2018-03-28T10:20:56.977Z,4.27
2018-03-28T10:23:24.363Z,4.20
2018-03-28T10:25:51.752Z,4.13
2018-03-28T10:28:19.141Z,4.21
2018-03-28T10:30:46.542Z,4.32
2018-03-28T10:33:13.928Z,4.46
2018-03-28T10:35:41.416Z,4.38
2018-03-28T10:38:08.800Z,4.48
2018-03-28T10:40:36.223Z,4.60
2018-03-28T10:43:03.674Z,4.48
2018-03-28T10:45:31.340Z,4.41
2018-03-28T10:47:58.793Z,4.53
2018-03-28T10:50:26.187Z,4.34
2018-03-28T10:52:53.571Z,4.33
2018-03-28T10:55:20.962Z,4.47
2018-03-28T10:57:48.409Z,4.50
2018-03-28T11:00:15.802Z,4.25
2018-03-28T11:02:43.189Z,4.37
2018-03-28T11:05:10.579Z,4.44
2018-03-28T11:07:37.967Z,4.48
2018-03-28T11:10:05.353Z,4.56
2018-03-28T11:12:32.862Z,4.50
2018-03-28T11:15:00.386Z,4.59
2018-03-28T11:17:27.858Z,4.53
2018-03-28T11:19:55.243Z,4.54
2018-03-28T11:22:22.672Z,4.47
2018-03-28T11:24:50.135Z,4.47
2018-03-28T11:27:17.523Z,4.68
2018-03-28T11:29:44.938Z,4.62
2018-03-28T11:32:12.394Z,4.52
2018-03-28T11:34:39.854Z,4.45
2018-03-28T11:37:07.248Z,4.55
2018-03-28T11:39:34.635Z,4.74
2018-03-28T11:42:02.116Z,4.85
2018-03-28T11:44:29.567Z,4.78
2018-03-28T11:46:56.962Z,4.64
2018-03-28T11:49:24.386Z,4.55
2018-03-28T11:51:51.781Z,4.59
2018-03-28T11:54:19.170Z,4.50
2018-03-28T11:56:46.650Z,4.65
2018-03-28T11:59:14.034Z,4.71
2018-03-28T12:01:41.429Z,4.59
2018-03-28T12:04:08.814Z,4.66
2018-03-28T12:06:36.205Z,4.68
2018-03-28T12:09:03.669Z,4.64
2018-03-28T12:11:31.001Z,4.61
2018-03-28T12:13:58.441Z,4.56
2018-03-28T12:16:25.836Z,4.54
2018-03-28T12:18:53.214Z,4.58
2018-03-28T12:21:20.682Z,4.40
2018-03-28T12:23:48.079Z,4.41
2018-03-28T12:26:15.479Z,4.28
2018-03-28T12:28:42.980Z,4.28
2018-03-28T12:31:10.372Z,4.25
2018-03-28T12:33:37.786Z,4.30
2018-03-28T12:36:05.241Z,4.42
2018-03-28T12:38:32.623Z,4.45
2018-03-28T12:41:00.021Z,4.33
2018-03-28T12:43:27.498Z,4.35
2018-03-28T12:45:55.062Z,4.30
2018-03-28T12:48:22.522Z,4.24
2018-03-28T12:50:50.007Z,4.21
2018-03-28T12:53:17.358Z,4.25
2018-03-28T12:55:44.783Z,4.28
2018-03-28T12:58:12.204Z,4.20
2018-03-28T13:00:39.595Z,4.23
2018-03-28T13:03:06.988Z,4.26
2018-03-28T13:05:34.406Z,4.32
2018-03-28T13:08:02.774Z,4.31
2018-03-28T13:10:30.131Z,4.34
2018-03-28T13:12:57.598Z,4.46
2018-03-28T13:15:24.991Z,4.53
2018-03-28T13:17:52.407Z,4.55
2018-03-28T13:20:19.802Z,4.54
2018-03-28T13:22:47.186Z,4.59
2018-03-28T13:25:14.570Z,4.50
2018-03-28T13:27:41.958Z,4.37
2018-03-28T13:30:09.378Z,4.37
2018-03-28T13:32:36.770Z,4.38
2018-03-28T13:35:04.157Z,4.30
2018-03-28T13:37:31.550Z,4.32
2018-03-28T13:39:58.998Z,4.31
2018-03-28T13:42:26.406Z,4.38
2018-03-28T13:44:53.810Z,4.47
2018-03-28T13:47:21.207Z,4.36
2018-03-28T13:49:48.587Z,4.30
2018-03-28T13:52:15.991Z,4.41
2018-03-28T13:54:43.431Z,4.48
2018-03-28T13:57:10.840Z,4.32
2018-03-28T13:59:38.238Z,4.30
2018-03-28T14:02:05.630Z,4.32
2018-03-28T14:04:33.052Z,4.43
2018-03-28T14:07:00.506Z,4.41
2018-03-28T14:09:27.890Z,4.36
2018-03-28T14:11:55.290Z,4.40
2018-03-28T14:14:22.684Z,4.30
2018-03-28T14:16:50.072Z,4.29
2018-03-28T14:19:17.481Z,4.28
2018-03-28T14:21:44.958Z,4.27
2018-03-28T14:24:12.391Z,4.29
2018-03-28T14:26:39.782Z,4.35
2018-03-28T14:29:07.171Z,4.30
2018-03-28T14:31:34.671Z,4.33
2018-03-28T14:34:01.960Z,4.32
2018-03-28T14:36:29.381Z,4.29
2018-03-28T14:38:56.762Z,4.30
2018-03-28T14:41:24.163Z,4.25
2018-03-28T14:43:51.661Z,4.24
2018-03-28T14:46:19.030Z,4.20
2018-03-28T14:48:46.433Z,4.20
2018-03-28T14:51:13.810Z,4.10
2018-03-28T14:53:41.214Z,4.09
2018-03-28T14:56:08.590Z,4.29
2018-03-28T14:58:36.074Z,4.26
2018-03-28T15:01:03.463Z,4.11
2018-03-28T15:03:30.863Z,4.14
2018-03-28T15:05:58.255Z,4.15
2018-03-28T15:08:25.648Z,4.18
2018-03-28T15:10:53.036Z,4.08
2018-03-28T15:13:20.605Z,3.98
2018-03-28T15:15:47.980Z,3.94
2018-03-28T15:18:15.431Z,3.93
2018-03-28T15:20:42.815Z,3.95
2018-03-28T15:23:10.352Z,3.92
2018-03-28T15:25:37.796Z,3.80
2018-03-28T15:28:05.159Z,3.89
2018-03-28T15:30:32.602Z,3.96
2018-03-28T15:33:00.053Z,3.96
2018-03-28T15:35:28.030Z,3.96
2018-03-28T15:37:55.432Z,4.08
2018-03-28T15:40:22.919Z,4.13
2018-03-28T15:42:50.403Z,3.96
2018-03-28T15:45:17.795Z,4.01
2018-03-28T15:47:45.207Z,3.94
2018-03-28T15:50:12.614Z,3.86
2018-03-28T15:52:40.032Z,3.94
2018-03-28T15:55:07.420Z,3.89
2018-03-28T15:57:34.860Z,3.91
2018-03-28T16:00:02.244Z,3.92
2018-03-28T16:02:29.629Z,3.97
2018-03-28T16:04:57.070Z,4.00
2018-03-28T16:07:24.417Z,3.98
2018-03-28T16:09:51.803Z,3.87
2018-03-28T16:12:19.198Z,3.86
2018-03-28T16:14:46.578Z,3.90
2018-03-28T16:17:13.971Z,3.85
2018-03-28T16:19:41.351Z,3.79
2018-03-28T16:22:08.776Z,3.82
2018-03-28T16:24:36.165Z,3.78
2018-03-28T16:27:03.554Z,3.85
2018-03-28T16:29:30.938Z,3.81
2018-03-28T16:31:58.394Z,3.84
2018-03-28T16:34:25.846Z,3.86
2018-03-28T16:36:53.298Z,3.93
2018-03-28T16:39:20.745Z,3.97
2018-03-28T16:41:48.123Z,3.97
2018-03-28T16:44:15.527Z,3.92
2018-03-28T16:46:43.070Z,3.92
2018-03-28T16:49:10.451Z,3.89
2018-03-28T16:51:37.842Z,3.97
2018-03-28T16:54:05.282Z,4.03
2018-03-28T16:56:32.731Z,3.97
2018-03-28T16:59:00.150Z,4.13
2018-03-28T17:01:27.532Z,4.14
2018-03-28T17:03:54.981Z,3.99
2018-03-28T17:06:22.357Z,3.94
2018-03-28T17:08:49.799Z,3.94
2018-03-28T17:11:17.246Z,3.95
2018-03-28T17:13:44.933Z,3.89
2018-03-28T17:16:12.320Z,3.93
2018-03-28T17:18:39.813Z,3.95
2018-03-28T17:21:07.207Z,3.93
2018-03-28T17:23:34.599Z,3.92
2018-03-28T17:26:01.984Z,3.96
2018-03-28T17:28:29.379Z,3.90
2018-03-28T17:30:56.764Z,3.91
2018-03-28T17:33:24.157Z,3.97
2018-03-28T17:35:51.563Z,3.88
2018-03-28T17:38:18.964Z,3.92
2018-03-28T17:40:46.342Z,3.86
2018-03-28T17:43:13.744Z,3.75
2018-03-28T17:45:41.118Z,3.79
2018-03-28T17:48:08.516Z,3.84
2018-03-28T17:50:35.967Z,3.75
2018-03-28T17:53:03.419Z,3.82
2018-03-28T17:55:30.803Z,3.70
2018-03-28T17:57:58.219Z,3.63
2018-03-28T18:00:25.611Z,3.54
2018-03-28T18:02:53.043Z,3.54
2018-03-28T18:05:20.498Z,3.49
2018-03-28T18:07:47.902Z,3.55
2018-03-28T18:10:15.290Z,3.62
2018-03-28T18:12:42.762Z,3.64
2018-03-28T18:15:10.154Z,3.54
2018-03-28T18:17:37.562Z,3.54
2018-03-28T18:20:04.954Z,3.56
2018-03-28T18:22:32.335Z,3.51
2018-03-28T18:24:59.725Z,3.57
2018-03-28T18:27:27.231Z,3.56
2018-03-28T18:29:54.665Z,3.65
2018-03-28T18:32:22.114Z,3.66
2018-03-28T18:34:49.562Z,3.58
2018-03-28T18:37:17.022Z,3.46
2018-03-28T18:39:44.424Z,3.41
2018-03-28T18:42:11.834Z,3.45
2018-03-28T18:44:39.226Z,3.51
2018-03-28T18:47:06.683Z,3.56
2018-03-28T18:49:34.124Z,3.58
2018-03-28T18:52:01.511Z,3.47
2018-03-28T18:54:28.907Z,3.64
2018-03-28T18:56:56.307Z,3.61
2018-03-28T18:59:23.726Z,3.57
2018-03-28T19:01:51.122Z,3.48
2018-03-28T19:04:18.524Z,3.45
2018-03-28T19:06:45.934Z,3.45
2018-03-28T19:09:13.334Z,3.40
2018-03-28T19:11:40.718Z,3.32
2018-03-28T19:14:08.112Z,3.40
2018-03-28T19:16:35.514Z,3.31
2018-03-28T19:19:02.914Z,3.22
2018-03-28T19:21:30.308Z,3.30
2018-03-28T19:23:57.842Z,3.24
2018-03-28T19:26:25.234Z,3.32
2018-03-28T19:28:52.728Z,3.40
2018-03-28T19:31:20.129Z,3.27
2018-03-28T19:33:47.529Z,3.31
2018-03-28T19:36:14.934Z,3.37
2018-03-28T19:38:42.416Z,3.39
2018-03-28T19:41:09.803Z,3.30
2018-03-28T19:43:37.192Z,3.25
2018-03-28T19:46:04.602Z,3.32
2018-03-28T19:48:31.979Z,3.25
2018-03-28T19:50:59.431Z,3.24
2018-03-28T19:53:26.900Z,3.29
2018-03-28T19:55:54.291Z,3.30
2018-03-28T19:58:21.794Z,3.38
2018-03-28T20:00:49.182Z,3.28
2018-03-28T20:03:16.575Z,3.27
2018-03-28T20:05:43.962Z,3.44
2018-03-28T20:08:11.419Z,3.40
2018-03-28T20:10:38.802Z,3.26
2018-03-28T20:13:06.234Z,3.33
2018-03-28T20:15:33.692Z,3.19
2018-03-28T20:18:01.081Z,3.18
2018-03-28T20:20:28.510Z,3.12
2018-03-28T20:22:55.879Z,3.05
2018-03-28T20:25:23.275Z,3.01
2018-03-28T20:27:50.664Z,3.06
2018-03-28T20:30:18.114Z,3.06
2018-03-28T20:32:45.510Z,3.06
2018-03-28T20:35:12.895Z,3.03
2018-03-28T20:37:40.288Z,3.02
2018-03-28T20:40:07.680Z,3.06
2018-03-28T20:42:35.092Z,3.03
2018-03-28T20:45:02.479Z,2.97
2018-03-28T20:47:29.911Z,3.03
2018-03-28T20:49:57.363Z,3.08
2018-03-28T20:52:24.754Z,3.04
2018-03-28T20:54:52.142Z,3.05
2018-03-28T20:57:19.634Z,3.15
2018-03-28T20:59:47.011Z,3.21
2018-03-28T21:02:14.422Z,3.22
2018-03-28T21:04:41.819Z,3.16
2018-03-28T21:07:09.207Z,3.17
2018-03-28T21:09:36.628Z,3.25
2018-03-28T21:12:04.016Z,3.13
2018-03-28T21:14:31.410Z,3.09
2018-03-28T21:16:58.862Z,3.12
2018-03-28T21:19:26.330Z,3.20
2018-03-28T21:21:53.708Z,3.22
2018-03-28T21:24:21.095Z,3.22
2018-03-28T21:26:48.483Z,3.20
2018-03-28T21:29:15.878Z,3.18
2018-03-28T21:31:43.262Z,3.20
2018-03-28T21:34:10.660Z,3.23
2018-03-28T21:36:38.047Z,3.28
2018-03-28T21:39:06.333Z,3.28
2018-03-28T21:41:33.715Z,3.32
2018-03-28T21:44:01.103Z,3.26
2018-03-28T21:46:28.490Z,3.22
2018-03-28T21:48:55.953Z,3.17
2018-03-28T21:51:23.340Z,3.19
2018-03-28T21:53:50.762Z,3.44
2018-03-28T21:56:18.223Z,3.27
2018-03-28T21:58:45.678Z,3.43
2018-03-28T22:01:13.058Z,3.70
2018-03-28T22:03:40.446Z,3.60
2018-03-28T22:06:07.834Z,3.64
2018-03-28T22:08:35.234Z,3.59
2018-03-28T22:11:02.668Z,3.48
2018-03-28T22:13:30.143Z,3.32
2018-03-28T22:15:57.519Z,3.11
2018-03-28T22:18:24.902Z,2.97
2018-03-28T22:20:52.382Z,3.02
2018-03-28T22:23:19.835Z,3.00
2018-03-28T22:25:47.227Z,3.12
2018-03-28T22:28:14.647Z,3.29
2018-03-28T22:30:42.050Z,3.51
2018-03-28T22:33:09.443Z,3.87
2018-03-28T22:35:36.834Z,4.04
2018-03-28T22:38:04.271Z,4.14
2018-03-28T22:40:31.679Z,4.03
2018-03-28T22:42:59.058Z,4.15
2018-03-28T22:45:26.549Z,4.15
2018-03-28T22:47:53.994Z,4.36
2018-03-28T22:50:21.391Z,4.30
2018-03-28T22:52:48.804Z,4.41
2018-03-28T22:55:16.202Z,4.55
2018-03-28T22:57:43.611Z,4.75
2018-03-28T23:00:11.015Z,4.83
2018-03-28T23:02:38.442Z,5.02
2018-03-28T23:05:05.823Z,5.12
2018-03-28T23:07:33.223Z,5.06
2018-03-28T23:10:00.693Z,5.17
2018-03-28T23:12:28.086Z,5.26
2018-03-28T23:14:55.495Z,5.32
2018-03-28T23:17:22.885Z,5.24
2018-03-28T23:19:50.282Z,5.27
2018-03-28T23:22:29.435Z,5.37
2018-03-28T23:24:56.822Z,5.21
2018-03-28T23:27:24.262Z,4.88
2018-03-28T23:29:51.635Z,4.82
2018-03-28T23:32:19.060Z,4.67
2018-03-28T23:34:46.442Z,4.44
2018-03-28T23:37:13.866Z,4.53
2018-03-28T23:39:41.259Z,4.32
2018-03-28T23:42:08.674Z,4.62
2018-03-28T23:44:36.067Z,4.40
2018-03-28T23:47:03.465Z,4.47
2018-03-28T23:49:30.937Z,4.74
2018-03-28T23:51:58.330Z,4.36
2018-03-28T23:54:25.720Z,4.50
2018-03-28T23:56:53.139Z,4.83
2018-03-28T23:59:20.580Z,4.73
